sensor_id;sensor_type;location;lat;lon;timestamp;pressure;altitude;pressure_sealevel;temperature;humidity
76337;BME280;65157;50.082;18.178;2022-12-18T00:01:34;100890.96;;;-4.83;81.66
76337;BME280;65157;50.082;18.178;2022-12-18T00:04:06;100890.91;;;-4.88;81.58
76337;BME280;65157;50.082;18.178;2022-12-18T00:06:35;100891.36;;;-4.89;81.53
76337;BME280;65157;50.082;18.178;2022-12-18T00:09:02;100895.77;;;-4.88;81.47
76337;BME280;65157;50.082;18.178;2022-12-18T00:11:30;100900.04;;;-4.92;81.32
76337;BME280;65157;50.082;18.178;2022-12-18T00:13:59;100904.52;;;-4.95;81.51
76337;BME280;65157;50.082;18.178;2022-12-18T00:16:27;100899.71;;;-4.99;81.42
76337;BME280;65157;50.082;18.178;2022-12-18T00:18:56;100901.20;;;-5.03;81.13
76337;BME280;65157;50.082;18.178;2022-12-18T00:21:24;100903.07;;;-5.07;81.17
76337;BME280;65157;50.082;18.178;2022-12-18T00:23:52;100908.89;;;-5.05;81.31
76337;BME280;65157;50.082;18.178;2022-12-18T00:26:24;100911.91;;;-5.03;81.18
76337;BME280;65157;50.082;18.178;2022-12-18T00:28:52;100911.70;;;-5.03;81.21
76337;BME280;65157;50.082;18.178;2022-12-18T00:31:21;100914.05;;;-5.05;81.48
76337;BME280;65157;50.082;18.178;2022-12-18T00:33:48;100917.52;;;-5.04;81.66
76337;BME280;65157;50.082;18.178;2022-12-18T00:36:18;100922.30;;;-5.01;81.80
76337;BME280;65157;50.082;18.178;2022-12-18T00:38:46;100922.54;;;-5.07;81.50
76337;BME280;65157;50.082;18.178;2022-12-18T00:41:14;100932.63;;;-5.13;81.47
76337;BME280;65157;50.082;18.178;2022-12-18T00:44:02;100934.67;;;-5.13;81.52
76337;BME280;65157;50.082;18.178;2022-12-18T00:46:29;100938.84;;;-5.05;81.72
76337;BME280;65157;50.082;18.178;2022-12-18T00:48:56;100940.08;;;-4.97;81.70
76337;BME280;65157;50.082;18.178;2022-12-18T00:51:23;100941.83;;;-4.93;81.38
76337;BME280;65157;50.082;18.178;2022-12-18T00:53:51;100943.52;;;-4.89;81.65
76337;BME280;65157;50.082;18.178;2022-12-18T00:56:18;100942.06;;;-4.84;81.62
76337;BME280;65157;50.082;18.178;2022-12-18T00:58:44;100941.33;;;-4.82;81.38
76337;BME280;65157;50.082;18.178;2022-12-18T01:01:11;100940.21;;;-4.83;81.30
76337;BME280;65157;50.082;18.178;2022-12-18T01:03:38;100943.55;;;-4.82;81.58
76337;BME280;65157;50.082;18.178;2022-12-18T01:06:09;100943.77;;;-4.81;81.47
76337;BME280;65157;50.082;18.178;2022-12-18T01:08:36;100947.08;;;-4.80;81.67
76337;BME280;65157;50.082;18.178;2022-12-18T01:11:15;100944.89;;;-4.79;81.82
76337;BME280;65157;50.082;18.178;2022-12-18T01:13:43;100946.48;;;-4.78;81.83
76337;BME280;65157;50.082;18.178;2022-12-18T01:16:15;100949.35;;;-4.76;81.53
76337;BME280;65157;50.082;18.178;2022-12-18T01:18:42;100951.18;;;-4.70;81.54
76337;BME280;65157;50.082;18.178;2022-12-18T01:21:12;100950.55;;;-4.65;81.02
76337;BME280;65157;50.082;18.178;2022-12-18T01:23:39;100950.80;;;-4.60;81.38
76337;BME280;65157;50.082;18.178;2022-12-18T01:26:08;100953.44;;;-4.54;81.48
76337;BME280;65157;50.082;18.178;2022-12-18T01:28:36;100951.39;;;-4.49;81.29
76337;BME280;65157;50.082;18.178;2022-12-18T01:33:44;100957.90;;;-4.43;81.31
76337;BME280;65157;50.082;18.178;2022-12-18T01:36:25;100963.98;;;-4.42;81.36
76337;BME280;65157;50.082;18.178;2022-12-18T01:38:53;100964.56;;;-4.40;81.29
76337;BME280;65157;50.082;18.178;2022-12-18T01:41:22;100964.67;;;-4.42;81.17
76337;BME280;65157;50.082;18.178;2022-12-18T01:43:51;100963.58;;;-4.43;81.20
76337;BME280;65157;50.082;18.178;2022-12-18T01:46:21;100964.50;;;-4.45;81.24
76337;BME280;65157;50.082;18.178;2022-12-18T01:48:58;100971.48;;;-4.48;81.30
76337;BME280;65157;50.082;18.178;2022-12-18T01:51:25;100974.81;;;-4.50;81.18
76337;BME280;65157;50.082;18.178;2022-12-18T01:53:53;100983.24;;;-4.50;81.30
76337;BME280;65157;50.082;18.178;2022-12-18T01:56:21;100985.21;;;-4.48;81.06
76337;BME280;65157;50.082;18.178;2022-12-18T01:58:56;100988.87;;;-4.44;81.14
76337;BME280;65157;50.082;18.178;2022-12-18T02:01:26;100996.00;;;-4.39;81.16
76337;BME280;65157;50.082;18.178;2022-12-18T02:03:53;100995.05;;;-4.37;81.04
76337;BME280;65157;50.082;18.178;2022-12-18T02:06:39;100996.44;;;-4.33;81.03
76337;BME280;65157;50.082;18.178;2022-12-18T02:09:13;101001.55;;;-4.30;80.96
76337;BME280;65157;50.082;18.178;2022-12-18T02:12:09;101005.11;;;-4.32;80.81
76337;BME280;65157;50.082;18.178;2022-12-18T02:14:38;101003.08;;;-4.35;81.08
76337;BME280;65157;50.082;18.178;2022-12-18T02:17:22;101009.80;;;-4.35;80.91
76337;BME280;65157;50.082;18.178;2022-12-18T02:28:28;101019.02;;;-4.48;80.87
76337;BME280;65157;50.082;18.178;2022-12-18T02:30:59;101018.63;;;-4.52;80.76
76337;BME280;65157;50.082;18.178;2022-12-18T02:33:29;101026.55;;;-4.56;80.74
76337;BME280;65157;50.082;18.178;2022-12-18T02:35:58;101030.30;;;-4.57;80.76
76337;BME280;65157;50.082;18.178;2022-12-18T02:38:27;101025.95;;;-4.54;81.18
76337;BME280;65157;50.082;18.178;2022-12-18T02:40:56;101022.23;;;-4.49;81.05
76337;BME280;65157;50.082;18.178;2022-12-18T02:43:23;101018.71;;;-4.43;81.02
76337;BME280;65157;50.082;18.178;2022-12-18T02:45:53;101029.42;;;-4.35;80.95
76337;BME280;65157;50.082;18.178;2022-12-18T02:48:24;101025.67;;;-4.31;80.96
76337;BME280;65157;50.082;18.178;2022-12-18T02:51:05;101024.63;;;-4.27;80.89
76337;BME280;65157;50.082;18.178;2022-12-18T02:53:43;101025.86;;;-4.30;80.36
76337;BME280;65157;50.082;18.178;2022-12-18T02:56:38;101034.39;;;-4.36;80.40
76337;BME280;65157;50.082;18.178;2022-12-18T02:59:13;101035.11;;;-4.35;80.68
76337;BME280;65157;50.082;18.178;2022-12-18T03:04:16;101042.30;;;-4.40;80.72
76337;BME280;65157;50.082;18.178;2022-12-18T03:06:50;101048.87;;;-4.43;80.54
76337;BME280;65157;50.082;18.178;2022-12-18T03:09:25;101052.02;;;-4.50;80.32
76337;BME280;65157;50.082;18.178;2022-12-18T03:11:56;101051.83;;;-4.54;80.40
76337;BME280;65157;50.082;18.178;2022-12-18T03:14:45;101052.64;;;-4.54;80.71
76337;BME280;65157;50.082;18.178;2022-12-18T03:17:18;101052.57;;;-4.52;80.60
76337;BME280;65157;50.082;18.178;2022-12-18T03:19:47;101054.12;;;-4.49;80.86
76337;BME280;65157;50.082;18.178;2022-12-18T03:22:16;101052.38;;;-4.45;80.83
76337;BME280;65157;50.082;18.178;2022-12-18T03:24:44;101053.14;;;-4.40;80.86
76337;BME280;65157;50.082;18.178;2022-12-18T03:27:15;101050.50;;;-4.34;80.72
76337;BME280;65157;50.082;18.178;2022-12-18T03:29:47;101055.36;;;-4.30;80.75
76337;BME280;65157;50.082;18.178;2022-12-18T03:32:29;101061.35;;;-4.27;80.59
76337;BME280;65157;50.082;18.178;2022-12-18T03:35:00;101062.05;;;-4.27;80.37
76337;BME280;65157;50.082;18.178;2022-12-18T03:37:30;101065.38;;;-4.29;80.32
76337;BME280;65157;50.082;18.178;2022-12-18T03:39:57;101072.02;;;-4.31;80.65
76337;BME280;65157;50.082;18.178;2022-12-18T03:48:01;101080.70;;;-4.41;80.45
76337;BME280;65157;50.082;18.178;2022-12-18T03:55:37;101093.17;;;-4.43;80.32
76337;BME280;65157;50.082;18.178;2022-12-18T03:58:06;101095.55;;;-4.40;80.32
76337;BME280;65157;50.082;18.178;2022-12-18T04:00:34;101103.70;;;-4.35;80.45
76337;BME280;65157;50.082;18.178;2022-12-18T04:03:03;101110.18;;;-4.33;80.42
76337;BME280;65157;50.082;18.178;2022-12-18T04:05:32;101106.68;;;-4.34;80.25
76337;BME280;65157;50.082;18.178;2022-12-18T04:08:00;101101.66;;;-4.35;80.22
76337;BME280;65157;50.082;18.178;2022-12-18T04:10:27;101101.83;;;-4.35;80.31
76337;BME280;65157;50.082;18.178;2022-12-18T04:12:57;101099.49;;;-4.33;80.28
76337;BME280;65157;50.082;18.178;2022-12-18T04:15:24;101095.63;;;-4.35;80.19
76337;BME280;65157;50.082;18.178;2022-12-18T04:17:51;101097.27;;;-4.36;80.26
76337;BME280;65157;50.082;18.178;2022-12-18T04:20:18;101101.31;;;-4.38;80.28
76337;BME280;65157;50.082;18.178;2022-12-18T04:22:45;101109.90;;;-4.42;79.89
76337;BME280;65157;50.082;18.178;2022-12-18T04:25:12;101115.35;;;-4.48;79.86
76337;BME280;65157;50.082;18.178;2022-12-18T04:27:39;101125.09;;;-4.53;79.83
76337;BME280;65157;50.082;18.178;2022-12-18T04:30:06;101129.77;;;-4.56;80.15
76337;BME280;65157;50.082;18.178;2022-12-18T04:32:33;101127.52;;;-4.57;80.20
76337;BME280;65157;50.082;18.178;2022-12-18T04:35:00;101126.55;;;-4.55;80.35
76337;BME280;65157;50.082;18.178;2022-12-18T04:37:27;101126.52;;;-4.51;80.40
76337;BME280;65157;50.082;18.178;2022-12-18T04:39:54;101128.76;;;-4.48;80.35
76337;BME280;65157;50.082;18.178;2022-12-18T04:42:20;101129.19;;;-4.43;80.65
76337;BME280;65157;50.082;18.178;2022-12-18T04:44:47;101131.27;;;-4.39;80.52
76337;BME280;65157;50.082;18.178;2022-12-18T04:47:14;101135.35;;;-4.37;80.35
76337;BME280;65157;50.082;18.178;2022-12-18T04:49:40;101138.72;;;-4.34;80.32
76337;BME280;65157;50.082;18.178;2022-12-18T04:52:07;101137.77;;;-4.36;79.92
76337;BME280;65157;50.082;18.178;2022-12-18T04:54:34;101142.18;;;-4.38;79.97
76337;BME280;65157;50.082;18.178;2022-12-18T04:57:00;101145.09;;;-4.38;80.09
76337;BME280;65157;50.082;18.178;2022-12-18T04:59:27;101144.93;;;-4.41;80.25
76337;BME280;65157;50.082;18.178;2022-12-18T05:01:54;101144.77;;;-4.45;79.81
76337;BME280;65157;50.082;18.178;2022-12-18T05:04:20;101147.88;;;-4.49;79.91
76337;BME280;65157;50.082;18.178;2022-12-18T05:06:47;101151.36;;;-4.51;79.95
76337;BME280;65157;50.082;18.178;2022-12-18T05:09:14;101151.97;;;-4.53;80.14
76337;BME280;65157;50.082;18.178;2022-12-18T05:11:40;101151.43;;;-4.53;79.99
76337;BME280;65157;50.082;18.178;2022-12-18T05:14:07;101155.64;;;-4.52;79.89
76337;BME280;65157;50.082;18.178;2022-12-18T05:16:34;101160.86;;;-4.47;80.07
76337;BME280;65157;50.082;18.178;2022-12-18T05:19:00;101159.61;;;-4.41;79.62
76337;BME280;65157;50.082;18.178;2022-12-18T05:21:27;101161.27;;;-4.39;79.49
76337;BME280;65157;50.082;18.178;2022-12-18T05:23:54;101165.65;;;-4.33;79.17
76337;BME280;65157;50.082;18.178;2022-12-18T05:26:20;101166.14;;;-4.38;79.17
76337;BME280;65157;50.082;18.178;2022-12-18T05:28:47;101166.14;;;-4.38;79.47
76337;BME280;65157;50.082;18.178;2022-12-18T05:31:14;101169.14;;;-4.36;79.39
76337;BME280;65157;50.082;18.178;2022-12-18T05:33:41;101173.58;;;-4.37;79.16
76337;BME280;65157;50.082;18.178;2022-12-18T05:36:08;101176.86;;;-4.37;78.91
76337;BME280;65157;50.082;18.178;2022-12-18T05:38:37;101180.16;;;-4.40;78.70
76337;BME280;65157;50.082;18.178;2022-12-18T05:41:06;101183.61;;;-4.47;78.40
76337;BME280;65157;50.082;18.178;2022-12-18T05:43:37;101185.83;;;-4.55;78.38
76337;BME280;65157;50.082;18.178;2022-12-18T05:46:12;101184.95;;;-4.62;78.46
76337;BME280;65157;50.082;18.178;2022-12-18T05:48:39;101186.75;;;-4.64;79.02
76337;BME280;65157;50.082;18.178;2022-12-18T05:51:09;101188.73;;;-4.62;78.92
76337;BME280;65157;50.082;18.178;2022-12-18T05:53:37;101190.13;;;-4.58;79.20
76337;BME280;65157;50.082;18.178;2022-12-18T05:56:06;101191.81;;;-4.56;79.43
76337;BME280;65157;50.082;18.178;2022-12-18T05:58:37;101189.84;;;-4.54;79.48
76337;BME280;65157;50.082;18.178;2022-12-18T06:01:17;101192.71;;;-4.54;79.15
76337;BME280;65157;50.082;18.178;2022-12-18T06:03:44;101194.90;;;-4.56;79.45
76337;BME280;65157;50.082;18.178;2022-12-18T06:06:15;101196.02;;;-4.58;79.00
76337;BME280;65157;50.082;18.178;2022-12-18T06:08:42;101197.30;;;-4.60;79.26
76337;BME280;65157;50.082;18.178;2022-12-18T06:11:09;101201.91;;;-4.61;79.47
76337;BME280;65157;50.082;18.178;2022-12-18T06:13:36;101197.32;;;-4.63;79.60
76337;BME280;65157;50.082;18.178;2022-12-18T06:16:05;101197.23;;;-4.64;79.56
76337;BME280;65157;50.082;18.178;2022-12-18T06:18:32;101200.59;;;-4.66;79.40
76337;BME280;65157;50.082;18.178;2022-12-18T06:21:00;101209.08;;;-4.69;79.22
76337;BME280;65157;50.082;18.178;2022-12-18T06:23:26;101216.55;;;-4.67;79.07
76337;BME280;65157;50.082;18.178;2022-12-18T06:25:53;101220.58;;;-4.66;79.24
76337;BME280;65157;50.082;18.178;2022-12-18T06:28:20;101224.00;;;-4.63;79.64
76337;BME280;65157;50.082;18.178;2022-12-18T06:30:48;101221.20;;;-4.60;79.64
76337;BME280;65157;50.082;18.178;2022-12-18T06:33:15;101228.16;;;-4.52;79.61
76337;BME280;65157;50.082;18.178;2022-12-18T06:35:42;101234.23;;;-4.51;79.41
76337;BME280;65157;50.082;18.178;2022-12-18T06:38:09;101232.19;;;-4.55;79.21
76337;BME280;65157;50.082;18.178;2022-12-18T06:40:37;101228.91;;;-4.61;79.10
76337;BME280;65157;50.082;18.178;2022-12-18T06:43:06;101234.08;;;-4.71;79.02
76337;BME280;65157;50.082;18.178;2022-12-18T06:45:33;101235.13;;;-4.81;78.91
76337;BME280;65157;50.082;18.178;2022-12-18T06:48:00;101246.13;;;-4.92;78.95
76337;BME280;65157;50.082;18.178;2022-12-18T06:50:26;101246.13;;;-5.01;79.05
76337;BME280;65157;50.082;18.178;2022-12-18T06:52:53;101248.47;;;-5.06;79.12
76337;BME280;65157;50.082;18.178;2022-12-18T06:55:20;101252.48;;;-5.08;79.44
76337;BME280;65157;50.082;18.178;2022-12-18T06:57:46;101254.98;;;-5.03;79.77
76337;BME280;65157;50.082;18.178;2022-12-18T07:00:14;101257.14;;;-4.95;79.78
76337;BME280;65157;50.082;18.178;2022-12-18T07:02:40;101263.95;;;-4.90;79.71
76337;BME280;65157;50.082;18.178;2022-12-18T07:05:07;101265.57;;;-4.82;79.51
76337;BME280;65157;50.082;18.178;2022-12-18T07:07:35;101265.73;;;-4.79;79.14
76337;BME280;65157;50.082;18.178;2022-12-18T07:10:02;101270.60;;;-4.78;78.99
76337;BME280;65157;50.082;18.178;2022-12-18T07:12:29;101275.55;;;-4.79;79.03
76337;BME280;65157;50.082;18.178;2022-12-18T07:14:56;101279.01;;;-4.78;78.91
76337;BME280;65157;50.082;18.178;2022-12-18T07:17:22;101278.35;;;-4.78;78.73
76337;BME280;65157;50.082;18.178;2022-12-18T07:19:49;101284.61;;;-4.80;78.94
76337;BME280;65157;50.082;18.178;2022-12-18T07:22:15;101293.41;;;-4.83;78.98
76337;BME280;65157;50.082;18.178;2022-12-18T07:24:42;101299.23;;;-4.87;79.01
76337;BME280;65157;50.082;18.178;2022-12-18T07:27:09;101304.41;;;-4.90;78.96
76337;BME280;65157;50.082;18.178;2022-12-18T07:29:36;101309.45;;;-4.93;78.94
76337;BME280;65157;50.082;18.178;2022-12-18T07:32:03;101317.77;;;-4.91;79.04
76337;BME280;65157;50.082;18.178;2022-12-18T07:34:30;101320.79;;;-4.90;79.06
76337;BME280;65157;50.082;18.178;2022-12-18T07:36:56;101321.87;;;-4.85;79.17
76337;BME280;65157;50.082;18.178;2022-12-18T07:39:23;101321.73;;;-4.82;79.22
76337;BME280;65157;50.082;18.178;2022-12-18T07:41:50;101324.61;;;-4.76;79.50
76337;BME280;65157;50.082;18.178;2022-12-18T07:44:35;101333.76;;;-4.72;79.45
76337;BME280;65157;50.082;18.178;2022-12-18T07:47:03;101332.19;;;-4.76;79.11
76337;BME280;65157;50.082;18.178;2022-12-18T07:49:29;101335.95;;;-4.73;78.77
76337;BME280;65157;50.082;18.178;2022-12-18T07:51:57;101334.45;;;-4.76;79.01
76337;BME280;65157;50.082;18.178;2022-12-18T07:54:24;101335.80;;;-4.76;79.09
76337;BME280;65157;50.082;18.178;2022-12-18T07:56:51;101336.12;;;-4.73;79.03
76337;BME280;65157;50.082;18.178;2022-12-18T07:59:19;101332.80;;;-4.71;78.82
76337;BME280;65157;50.082;18.178;2022-12-18T08:01:45;101327.86;;;-4.70;78.64
76337;BME280;65157;50.082;18.178;2022-12-18T08:04:12;101327.73;;;-4.69;78.75
76337;BME280;65157;50.082;18.178;2022-12-18T08:06:39;101322.85;;;-4.64;78.45
76337;BME280;65157;50.082;18.178;2022-12-18T08:09:05;101323.10;;;-4.55;78.48
76337;BME280;65157;50.082;18.178;2022-12-18T08:11:32;101322.32;;;-4.47;78.36
76337;BME280;65157;50.082;18.178;2022-12-18T08:13:59;101319.67;;;-4.45;78.25
76337;BME280;65157;50.082;18.178;2022-12-18T08:16:25;101324.07;;;-4.46;78.11
76337;BME280;65157;50.082;18.178;2022-12-18T08:18:53;101330.30;;;-4.49;78.15
76337;BME280;65157;50.082;18.178;2022-12-18T08:21:26;101335.46;;;-4.53;78.10
76337;BME280;65157;50.082;18.178;2022-12-18T08:23:56;101340.44;;;-4.53;78.34
76337;BME280;65157;50.082;18.178;2022-12-18T08:26:25;101337.58;;;-4.55;78.34
76337;BME280;65157;50.082;18.178;2022-12-18T08:28:57;101343.20;;;-4.57;78.34
76337;BME280;65157;50.082;18.178;2022-12-18T08:31:26;101343.39;;;-4.60;78.32
76337;BME280;65157;50.082;18.178;2022-12-18T08:33:53;101347.95;;;-4.65;78.24
76337;BME280;65157;50.082;18.178;2022-12-18T08:36:21;101343.60;;;-4.72;78.34
76337;BME280;65157;50.082;18.178;2022-12-18T08:38:48;101351.59;;;-4.67;78.25
76337;BME280;65157;50.082;18.178;2022-12-18T08:41:16;101353.77;;;-4.62;78.28
76337;BME280;65157;50.082;18.178;2022-12-18T08:43:43;101354.06;;;-4.56;78.12
76337;BME280;65157;50.082;18.178;2022-12-18T08:46:33;101351.23;;;-4.51;77.92
76337;BME280;65157;50.082;18.178;2022-12-18T08:49:00;101349.98;;;-4.48;77.99
76337;BME280;65157;50.082;18.178;2022-12-18T08:51:27;101357.24;;;-4.48;78.04
76337;BME280;65157;50.082;18.178;2022-12-18T08:53:53;101356.94;;;-4.47;78.23
76337;BME280;65157;50.082;18.178;2022-12-18T08:56:20;101358.98;;;-4.41;78.29
76337;BME280;65157;50.082;18.178;2022-12-18T08:58:47;101360.64;;;-4.36;78.00
76337;BME280;65157;50.082;18.178;2022-12-18T09:01:14;101360.23;;;-4.34;77.85
76337;BME280;65157;50.082;18.178;2022-12-18T09:03:41;101354.80;;;-4.36;77.89
76337;BME280;65157;50.082;18.178;2022-12-18T09:06:07;101353.56;;;-4.36;77.77
76337;BME280;65157;50.082;18.178;2022-12-18T09:08:34;101358.17;;;-4.34;77.85
76337;BME280;65157;50.082;18.178;2022-12-18T09:11:01;101359.40;;;-4.30;77.71
76337;BME280;65157;50.082;18.178;2022-12-18T09:13:28;101361.95;;;-4.27;77.53
76337;BME280;65157;50.082;18.178;2022-12-18T09:15:55;101365.44;;;-4.23;77.70
76337;BME280;65157;50.082;18.178;2022-12-18T09:18:23;101369.48;;;-4.18;77.58
76337;BME280;65157;50.082;18.178;2022-12-18T09:20:50;101366.06;;;-4.11;77.42
76337;BME280;65157;50.082;18.178;2022-12-18T09:23:19;101365.36;;;-4.08;77.18
76337;BME280;65157;50.082;18.178;2022-12-18T09:25:46;101363.52;;;-4.10;76.98
76337;BME280;65157;50.082;18.178;2022-12-18T09:28:15;101361.02;;;-4.12;77.00
76337;BME280;65157;50.082;18.178;2022-12-18T09:30:48;101361.02;;;-4.12;77.07
76337;BME280;65157;50.082;18.178;2022-12-18T09:33:16;101353.61;;;-4.15;77.02
76337;BME280;65157;50.082;18.178;2022-12-18T09:35:44;101348.06;;;-4.16;77.24
76337;BME280;65157;50.082;18.178;2022-12-18T09:38:12;101347.96;;;-4.17;77.26
76337;BME280;65157;50.082;18.178;2022-12-18T09:40:44;101353.63;;;-4.18;77.18
76337;BME280;65157;50.082;18.178;2022-12-18T09:43:19;101360.98;;;-4.23;77.21
76337;BME280;65157;50.082;18.178;2022-12-18T09:45:47;101357.33;;;-4.26;77.30
76337;BME280;65157;50.082;18.178;2022-12-18T09:48:23;101358.23;;;-4.29;77.14
76337;BME280;65157;50.082;18.178;2022-12-18T09:50:56;101362.77;;;-4.31;77.20
76337;BME280;65157;50.082;18.178;2022-12-18T09:53:28;101376.96;;;-4.30;77.21
76337;BME280;65157;50.082;18.178;2022-12-18T09:55:57;101384.44;;;-4.29;77.50
76337;BME280;65157;50.082;18.178;2022-12-18T10:00:55;101362.60;;;-4.21;77.27
76337;BME280;65157;50.082;18.178;2022-12-18T10:03:22;101358.70;;;-4.13;77.11
76337;BME280;65157;50.082;18.178;2022-12-18T10:06:59;101355.81;;;-4.09;76.91
76337;BME280;65157;50.082;18.178;2022-12-18T10:09:08;101366.29;;;-4.03;76.95
76337;BME280;65157;50.082;18.178;2022-12-18T10:14:54;101357.23;;;-4.01;77.13
76337;BME280;65157;50.082;18.178;2022-12-18T10:20:09;101347.45;;;-4.04;76.97
76337;BME280;65157;50.082;18.178;2022-12-18T10:27:39;101336.90;;;-4.08;76.83
76337;BME280;65157;50.082;18.178;2022-12-18T10:30:20;101329.88;;;-4.00;77.06
76337;BME280;65157;50.082;18.178;2022-12-18T10:32:47;101325.11;;;-3.88;76.87
76337;BME280;65157;50.082;18.178;2022-12-18T10:35:25;101323.38;;;-3.78;76.64
76337;BME280;65157;50.082;18.178;2022-12-18T10:38:19;101315.48;;;-3.70;76.53
76337;BME280;65157;50.082;18.178;2022-12-18T10:40:52;101315.85;;;-3.66;76.39
76337;BME280;65157;50.082;18.178;2022-12-18T10:43:37;101316.14;;;-3.60;76.53
76337;BME280;65157;50.082;18.178;2022-12-18T10:51:03;101311.98;;;-3.57;76.16
76337;BME280;65157;50.082;18.178;2022-12-18T10:53:31;101315.46;;;-3.60;76.00
76337;BME280;65157;50.082;18.178;2022-12-18T10:55:59;101318.38;;;-3.63;75.90
76337;BME280;65157;50.082;18.178;2022-12-18T10:58:28;101313.76;;;-3.66;76.06
76337;BME280;65157;50.082;18.178;2022-12-18T11:03:46;101317.08;;;-3.69;75.90
76337;BME280;65157;50.082;18.178;2022-12-18T11:06:25;101314.09;;;-3.66;76.09
76337;BME280;65157;50.082;18.178;2022-12-18T11:09:04;101315.59;;;-3.60;76.16
76337;BME280;65157;50.082;18.178;2022-12-18T11:11:32;101312.45;;;-3.51;75.90
76337;BME280;65157;50.082;18.178;2022-12-18T11:14:14;101305.69;;;-3.44;75.86
76337;BME280;65157;50.082;18.178;2022-12-18T11:16:45;101308.57;;;-3.41;75.43
76337;BME280;65157;50.082;18.178;2022-12-18T11:21:55;101311.48;;;-3.38;75.61
76337;BME280;65157;50.082;18.178;2022-12-18T11:24:32;101315.79;;;-3.38;75.61
76337;BME280;65157;50.082;18.178;2022-12-18T11:27:03;101319.70;;;-3.39;75.28
76337;BME280;65157;50.082;18.178;2022-12-18T11:29:39;101325.61;;;-3.38;75.39
76337;BME280;65157;50.082;18.178;2022-12-18T11:34:46;101332.06;;;-3.44;75.30
76337;BME280;65157;50.082;18.178;2022-12-18T11:37:17;101331.66;;;-3.46;75.47
76337;BME280;65157;50.082;18.178;2022-12-18T11:39:54;101335.23;;;-3.43;75.31
76337;BME280;65157;50.082;18.178;2022-12-18T11:42:35;101342.48;;;-3.43;75.19
76337;BME280;65157;50.082;18.178;2022-12-18T11:45:29;101344.85;;;-3.40;75.16
76337;BME280;65157;50.082;18.178;2022-12-18T11:50:41;101340.26;;;-3.24;75.06
76337;BME280;65157;50.082;18.178;2022-12-18T11:53:12;101328.18;;;-3.20;74.45
76337;BME280;65157;50.082;18.178;2022-12-18T12:06:26;101332.09;;;-3.14;74.21
76337;BME280;65157;50.082;18.178;2022-12-18T12:09:08;101328.38;;;-3.05;74.10
76337;BME280;65157;50.082;18.178;2022-12-18T12:19:53;101337.50;;;-2.75;73.16
76337;BME280;65157;50.082;18.178;2022-12-18T12:25:44;101340.52;;;-2.54;72.80
76337;BME280;65157;50.082;18.178;2022-12-18T12:31:11;101341.55;;;-2.26;72.03
76337;BME280;65157;50.082;18.178;2022-12-18T12:39:11;101333.30;;;-1.49;70.44
76337;BME280;65157;50.082;18.178;2022-12-18T12:41:41;101332.60;;;-1.23;70.08
76337;BME280;65157;50.082;18.178;2022-12-18T12:44:35;101328.04;;;-0.69;69.39
76337;BME280;65157;50.082;18.178;2022-12-18T12:47:14;101327.13;;;-0.27;68.82
76337;BME280;65157;50.082;18.178;2022-12-18T12:49:42;101332.16;;;0.03;68.76
76337;BME280;65157;50.082;18.178;2022-12-18T12:52:25;101331.70;;;0.21;67.84
76337;BME280;65157;50.082;18.178;2022-12-18T12:54:55;101331.86;;;0.47;67.18
76337;BME280;65157;50.082;18.178;2022-12-18T13:05:31;101324.95;;;1.05;64.24
76337;BME280;65157;50.082;18.178;2022-12-18T13:08:04;101316.11;;;0.94;63.90
76337;BME280;65157;50.082;18.178;2022-12-18T13:10:43;101322.55;;;0.77;63.97
76337;BME280;65157;50.082;18.178;2022-12-18T13:13:14;101329.34;;;0.44;64.52
76337;BME280;65157;50.082;18.178;2022-12-18T13:15:47;101333.34;;;0.13;65.11
76337;BME280;65157;50.082;18.178;2022-12-18T13:18:20;101330.73;;;-0.08;65.54
76337;BME280;65157;50.082;18.178;2022-12-18T13:23:27;101326.80;;;-0.42;66.03
76337;BME280;65157;50.082;18.178;2022-12-18T13:33:40;101319.48;;;-0.95;66.70
76337;BME280;65157;50.082;18.178;2022-12-18T13:41:41;101321.87;;;-1.23;67.01
76337;BME280;65157;50.082;18.178;2022-12-18T13:44:31;101319.88;;;-1.35;67.11
76337;BME280;65157;50.082;18.178;2022-12-18T13:47:35;101335.97;;;-1.43;67.12
76337;BME280;65157;50.082;18.178;2022-12-18T13:50:21;101335.08;;;-1.57;67.26
76337;BME280;65157;50.082;18.178;2022-12-18T13:52:52;101340.04;;;-1.63;67.30
76337;BME280;65157;50.082;18.178;2022-12-18T13:55:20;101345.38;;;-1.64;67.55
76337;BME280;65157;50.082;18.178;2022-12-18T13:57:48;101355.23;;;-1.68;67.18
76337;BME280;65157;50.082;18.178;2022-12-18T14:02:45;101351.23;;;-2.06;67.25
76337;BME280;65157;50.082;18.178;2022-12-18T14:05:25;101353.73;;;-2.20;67.67
76337;BME280;65157;50.082;18.178;2022-12-18T14:07:53;101356.59;;;-2.26;67.87
76337;BME280;65157;50.082;18.178;2022-12-18T14:10:21;101359.36;;;-2.34;67.77
76337;BME280;65157;50.082;18.178;2022-12-18T14:12:50;101353.16;;;-2.50;67.84
76337;BME280;65157;50.082;18.178;2022-12-18T14:20:21;101357.15;;;-2.92;68.35
76337;BME280;65157;50.082;18.178;2022-12-18T14:22:49;101363.77;;;-3.05;68.43
76337;BME280;65157;50.082;18.178;2022-12-18T14:25:19;101362.77;;;-3.19;68.61
76337;BME280;65157;50.082;18.178;2022-12-18T14:30:39;101365.41;;;-3.58;69.11
76337;BME280;65157;50.082;18.178;2022-12-18T14:33:12;101371.20;;;-3.77;69.22
76337;BME280;65157;50.082;18.178;2022-12-18T14:35:41;101372.85;;;-3.99;69.68
76337;BME280;65157;50.082;18.178;2022-12-18T14:38:11;101373.66;;;-4.20;69.77
76337;BME280;65157;50.082;18.178;2022-12-18T14:40:38;101377.49;;;-4.40;69.98
76337;BME280;65157;50.082;18.178;2022-12-18T14:43:04;101380.23;;;-4.60;70.07
76337;BME280;65157;50.082;18.178;2022-12-18T14:45:36;101385.73;;;-4.80;70.25
76337;BME280;65157;50.082;18.178;2022-12-18T14:48:11;101388.27;;;-4.97;70.28
76337;BME280;65157;50.082;18.178;2022-12-18T14:50:40;101391.08;;;-5.11;70.41
76337;BME280;65157;50.082;18.178;2022-12-18T14:53:19;101391.36;;;-5.28;70.46
76337;BME280;65157;50.082;18.178;2022-12-18T14:55:48;101394.71;;;-5.45;70.51